createdAt,value
2019-04-26T00:01:32.913Z,69.80
2019-04-26T00:04:04.425Z,70.00
2019-04-26T00:06:34.759Z,70.20
2019-04-26T00:09:28.144Z,70.60
2019-04-26T00:12:16.388Z,71.50
2019-04-26T00:15:12.178Z,72.00
2019-04-26T00:17:49.281Z,72.80
2019-04-26T00:20:19.666Z,73.00
2019-04-26T00:22:54.106Z,72.80
2019-04-26T00:25:24.526Z,72.50
2019-04-26T00:27:54.866Z,72.80
2019-04-26T00:30:25.251Z,72.90
2019-04-26T00:32:55.464Z,73.10
2019-04-26T00:35:25.720Z,73.40
2019-04-26T00:37:56.039Z,74.30
2019-04-26T00:40:26.494Z,74.10
2019-04-26T00:42:57.637Z,74.30
2019-04-26T00:45:31.166Z,74.00
2019-04-26T00:48:02.759Z,74.80
2019-04-26T00:50:36.100Z,75.00
2019-04-26T00:53:06.586Z,75.40
2019-04-26T00:55:37.220Z,75.20
2019-04-26T00:58:07.959Z,75.20
2019-04-26T01:00:38.743Z,75.60
2019-04-26T01:03:09.992Z,75.90
2019-04-26T01:05:41.525Z,76.90
2019-04-26T01:08:11.830Z,76.50
2019-04-26T01:10:42.185Z,77.00
2019-04-26T01:13:12.518Z,77.30
2019-04-26T01:15:44.157Z,78.60
2019-04-26T01:18:14.419Z,80.30
2019-04-26T01:20:45.930Z,81.30
2019-04-26T01:23:19.312Z,81.20
2019-04-26T01:26:19.155Z,80.70
2019-04-26T01:28:57.014Z,80.70
2019-04-26T01:31:30.370Z,81.00
2019-04-26T01:34:00.757Z,80.80
2019-04-26T01:36:32.324Z,79.80
2019-04-26T01:39:12.133Z,80.30
2019-04-26T01:41:47.156Z,81.20
2019-04-26T01:44:28.672Z,81.90
2019-04-26T01:47:00.134Z,82.30
2019-04-26T01:49:30.505Z,82.70
2019-04-26T01:52:06.488Z,82.70
2019-04-26T01:54:41.333Z,82.80
2019-04-26T01:57:12.858Z,81.80
2019-04-26T01:59:47.519Z,80.80
2019-04-26T02:02:40.079Z,80.90
2019-04-26T02:05:15.331Z,79.60
2019-04-26T02:07:45.759Z,79.40
2019-04-26T02:10:18.350Z,79.00
2019-04-26T02:12:50.714Z,79.00
2019-04-26T02:15:25.523Z,79.10
2019-04-26T02:17:58.055Z,79.40
2019-04-26T02:21:01.837Z,79.50
2019-04-26T02:23:36.959Z,79.80
2019-04-26T02:26:26.587Z,81.50
2019-04-26T02:28:57.306Z,82.20
2019-04-26T02:31:29.313Z,81.30
2019-04-26T02:34:01.374Z,81.00
2019-04-26T02:38:58.311Z,80.30
2019-04-26T02:41:31.139Z,79.20
2019-04-26T02:44:04.642Z,79.70
2019-04-26T02:46:46.157Z,79.90
2019-04-26T02:49:38.103Z,79.70
2019-04-26T02:52:18.348Z,80.10
2019-04-26T02:55:02.190Z,80.10
2019-04-26T02:57:48.532Z,79.60
2019-04-26T03:00:21.182Z,79.10
2019-04-26T03:03:00.354Z,80.20
2019-04-26T03:05:34.150Z,80.50
2019-04-26T03:08:11.419Z,80.00
2019-04-26T03:10:45.457Z,80.00
2019-04-26T03:13:27.672Z,79.90
2019-04-26T03:16:21.082Z,80.10
2019-04-26T03:19:02.608Z,80.30
2019-04-26T03:21:40.504Z,80.70
2019-04-26T03:24:22.088Z,81.00
2019-04-26T03:27:43.504Z,81.80
2019-04-26T03:30:26.576Z,82.30
2019-04-26T03:33:34.013Z,81.40
2019-04-26T03:36:44.159Z,81.20
2019-04-26T03:39:26.510Z,80.70
2019-04-26T03:42:38.347Z,81.50
2019-04-26T03:45:46.660Z,81.90
2019-04-26T03:48:33.919Z,81.40
2019-04-26T03:51:12.899Z,81.50
2019-04-26T03:53:50.546Z,81.60
2019-04-26T03:57:25.934Z,81.70
2019-04-26T04:00:41.488Z,83.30
2019-04-26T04:03:45.070Z,82.80
2019-04-26T04:06:21.815Z,83.20
2019-04-26T04:09:01.062Z,81.80
2019-04-26T04:11:42.313Z,82.00
2019-04-26T04:14:20.691Z,81.90
2019-04-26T04:17:27.582Z,82.10
2019-04-26T04:20:53.605Z,82.10
2019-04-26T04:23:47.172Z,81.90
2019-04-26T04:26:23.211Z,82.00
2019-04-26T04:29:51.229Z,81.60
2019-04-26T04:32:47.714Z,83.20
2019-04-26T04:35:21.630Z,84.70
2019-04-26T04:38:08.747Z,84.10
2019-04-26T04:41:08.690Z,84.80
2019-04-26T04:43:48.344Z,84.80
2019-04-26T04:47:23.713Z,84.80
2019-04-26T04:50:06.106Z,86.30
2019-04-26T04:52:44.988Z,86.50
2019-04-26T04:55:24.066Z,86.90
2019-04-26T04:58:12.163Z,88.90
2019-04-26T05:01:22.030Z,88.10
2019-04-26T05:04:01.656Z,89.70
2019-04-26T05:07:10.991Z,90.30
2019-04-26T05:10:11.690Z,91.20
2019-04-26T05:12:52.118Z,91.00
2019-04-26T05:15:48.403Z,90.90
2019-04-26T05:18:40.652Z,91.00
2019-04-26T05:21:35.100Z,91.60
2019-04-26T05:24:32.847Z,91.60
2019-04-26T05:27:30.282Z,92.10
2019-04-26T05:30:34.768Z,92.20
2019-04-26T05:33:42.812Z,93.70
2019-04-26T05:36:42.538Z,94.10
2019-04-26T05:39:29.854Z,93.70
2019-04-26T05:42:53.681Z,93.00
2019-04-26T05:46:08.390Z,93.20
2019-04-26T05:49:21.529Z,92.30
2019-04-26T05:52:29.527Z,92.30
2019-04-26T05:55:28.810Z,92.00
2019-04-26T05:58:28.317Z,92.10
2019-04-26T06:02:16.393Z,92.30
2019-04-26T06:05:05.821Z,92.80
2019-04-26T06:08:07.808Z,93.30
2019-04-26T06:10:48.183Z,93.80
2019-04-26T06:13:49.171Z,93.40
2019-04-26T06:17:12.711Z,93.80
2019-04-26T06:19:59.374Z,94.20
2019-04-26T06:22:56.027Z,94.00
2019-04-26T06:25:52.492Z,94.90
2019-04-26T06:28:48.289Z,95.10
2019-04-26T06:31:34.995Z,96.00
2019-04-26T06:34:13.313Z,97.30
2019-04-26T06:37:02.332Z,97.50
2019-04-26T06:39:46.014Z,97.10
2019-04-26T06:42:37.389Z,96.90
2019-04-26T06:45:51.506Z,96.70
2019-04-26T06:48:47.866Z,96.90
2019-04-26T06:51:25.136Z,96.70
2019-04-26T06:54:10.995Z,96.20
2019-04-26T06:57:29.465Z,97.30
2019-04-26T07:00:18.759Z,98.00
2019-04-26T07:03:37.477Z,97.40
2019-04-26T07:06:12.102Z,97.90
2019-04-26T07:09:08.323Z,98.80
2019-04-26T07:12:53.438Z,99.30
2019-04-26T07:16:16.483Z,98.30
2019-04-26T07:19:11.327Z,98.80
2019-04-26T07:22:35.899Z,99.00
2019-04-26T07:25:46.790Z,98.50
2019-04-26T07:28:55.510Z,98.60
2019-04-26T07:31:43.727Z,97.10
2019-04-26T07:34:45.832Z,96.30
2019-04-26T07:37:41.068Z,96.70
2019-04-26T07:41:20.792Z,96.90
2019-04-26T07:44:43.869Z,97.20
2019-04-26T07:48:19.572Z,97.20
2019-04-26T07:51:36.284Z,96.50
2019-04-26T07:54:58.243Z,96.20
2019-04-26T07:58:24.089Z,96.00
2019-04-26T08:01:41.959Z,96.60
2019-04-26T08:04:19.612Z,96.60
2019-04-26T08:07:00.576Z,96.80
2019-04-26T08:09:33.828Z,96.90
2019-04-26T08:12:07.965Z,97.00
2019-04-26T08:14:48.095Z,96.00
2019-04-26T08:17:45.139Z,95.30
2019-04-26T08:20:41.231Z,95.70
2019-04-26T08:23:36.981Z,94.80
2019-04-26T08:25:50.608Z,94.40
2019-04-26T08:28:23.239Z,95.00
2019-04-26T08:30:55.716Z,94.80
2019-04-26T08:33:40.470Z,94.40
2019-04-26T08:36:11.263Z,94.50
2019-04-26T08:38:44.551Z,94.40
2019-04-26T08:41:16.189Z,95.20
2019-04-26T08:44:21.486Z,95.10
2019-04-26T08:47:24.499Z,94.20
2019-04-26T08:50:17.646Z,94.80
2019-04-26T08:52:51.040Z,94.60
2019-04-26T08:55:23.253Z,94.60
2019-04-26T08:58:16.829Z,95.30
2019-04-26T09:00:59.242Z,95.30
2019-04-26T09:03:39.778Z,95.70
2019-04-26T09:06:27.258Z,95.00
2019-04-26T09:08:59.864Z,95.50
2019-04-26T09:11:34.023Z,94.70
2019-04-26T09:14:05.805Z,95.20
2019-04-26T09:16:36.199Z,95.50
2019-04-26T09:19:06.587Z,96.20
2019-04-26T09:21:47.509Z,95.50
2019-04-26T09:24:29.832Z,95.10
2019-04-26T09:27:21.004Z,95.50
2019-04-26T09:30:09.479Z,96.10
2019-04-26T09:32:53.345Z,95.00
2019-04-26T09:35:23.815Z,94.40
2019-04-26T09:37:56.637Z,93.50
2019-04-26T09:40:28.099Z,94.50
2019-04-26T09:43:21.010Z,94.10
2019-04-26T09:46:20.136Z,94.10
2019-04-26T09:49:08.561Z,94.70
2019-04-26T09:51:40.509Z,94.60
2019-04-26T09:54:10.904Z,94.60
2019-04-26T09:56:41.234Z,93.90
2019-04-26T09:59:13.376Z,94.30
2019-04-26T10:01:43.739Z,95.00
2019-04-26T10:04:14.020Z,94.40
2019-04-26T10:06:44.453Z,94.60
2019-04-26T10:09:21.276Z,95.90
2019-04-26T10:11:54.650Z,95.50
2019-04-26T10:14:35.852Z,94.90
2019-04-26T10:17:18.747Z,95.00
2019-04-26T10:19:51.172Z,94.90
2019-04-26T10:22:22.878Z,94.10
2019-04-26T10:24:53.395Z,94.90
2019-04-26T10:27:23.699Z,93.70
2019-04-26T10:29:56.533Z,93.90
2019-04-26T10:32:27.706Z,93.80
2019-04-26T10:34:59.367Z,93.50
2019-04-26T10:37:39.153Z,93.10
2019-04-26T10:40:03.092Z,93.40
2019-04-26T10:42:36.325Z,93.20
2019-04-26T10:45:10.463Z,93.70
2019-04-26T10:47:42.489Z,93.80
2019-04-26T10:50:13.445Z,93.90
2019-04-26T10:52:54.264Z,94.30
2019-04-26T10:55:51.416Z,93.50
2019-04-26T10:58:31.979Z,93.00
2019-04-26T11:01:06.092Z,92.70
2019-04-26T11:03:38.224Z,91.90
2019-04-26T11:06:08.637Z,92.60
2019-04-26T11:08:39.058Z,92.80
2019-04-26T11:11:10.499Z,92.30
2019-04-26T11:13:43.143Z,91.90
2019-04-26T11:16:14.715Z,91.60
2019-04-26T11:18:45.006Z,91.80
2019-04-26T11:21:20.997Z,91.50
2019-04-26T11:23:50.166Z,92.40
2019-04-26T11:26:20.558Z,92.30
2019-04-26T11:28:51.423Z,92.70
2019-04-26T11:31:23.298Z,91.90
2019-04-26T11:34:04.642Z,92.50
2019-04-26T11:36:28.713Z,92.40
2019-04-26T11:39:01.446Z,92.10
2019-04-26T11:41:33.991Z,92.10
2019-04-26T11:44:08.205Z,92.50
2019-04-26T11:46:44.654Z,91.30
2019-04-26T11:49:10.628Z,91.90
2019-04-26T11:51:41.589Z,90.70
2019-04-26T11:54:11.932Z,91.00
2019-04-26T11:56:42.294Z,90.50
2019-04-26T11:59:12.648Z,91.60
2019-04-26T12:01:43.211Z,90.70
2019-04-26T12:04:39.955Z,88.80
2019-04-26T12:07:29.329Z,86.30
2019-04-26T12:10:01.575Z,85.90
2019-04-26T12:12:33.417Z,87.60
2019-04-26T12:15:08.622Z,88.20
2019-04-26T12:17:36.884Z,87.60
2019-04-26T12:20:07.577Z,88.80
2019-04-26T12:22:39.393Z,87.90
2019-04-26T12:25:10.485Z,87.90
2019-04-26T12:27:41.033Z,88.80
2019-04-26T12:30:11.543Z,88.40
2019-04-26T12:32:42.173Z,88.50
2019-04-26T12:35:12.533Z,88.80
2019-04-26T12:37:42.949Z,88.20
2019-04-26T12:40:13.913Z,89.20
2019-04-26T12:42:47.325Z,88.40
2019-04-26T12:45:35.281Z,87.70
2019-04-26T12:48:08.180Z,87.80
2019-04-26T12:50:38.687Z,86.90
2019-04-26T12:53:09.102Z,84.70
2019-04-26T12:55:39.352Z,84.70
2019-04-26T12:58:11.130Z,83.70
2019-04-26T13:00:53.158Z,83.00
2019-04-26T13:03:20.531Z,82.80
2019-04-26T13:05:49.797Z,85.00
2019-04-26T13:08:20.487Z,86.30
2019-04-26T13:11:22.211Z,87.80
2019-04-26T13:13:59.519Z,88.40
2019-04-26T13:16:45.003Z,87.20
2019-04-26T13:19:16.112Z,87.90
2019-04-26T13:21:49.675Z,87.80
2019-04-26T13:24:20.065Z,90.30
2019-04-26T13:26:50.462Z,90.10
2019-04-26T13:29:20.829Z,87.10
2019-04-26T13:31:51.231Z,88.70
2019-04-26T13:34:23.051Z,88.00
2019-04-26T13:36:53.474Z,87.60
2019-04-26T13:39:23.980Z,85.30
2019-04-26T13:42:04.427Z,86.00
2019-04-26T13:44:47.777Z,83.90
2019-04-26T13:47:40.509Z,85.20
2019-04-26T13:50:15.687Z,85.30
2019-04-26T13:52:46.114Z,85.50
2019-04-26T13:55:16.554Z,85.80
2019-04-26T13:57:48.099Z,83.90
2019-04-26T14:00:24.457Z,83.00
2019-04-26T14:02:54.981Z,79.60
2019-04-26T14:05:25.357Z,80.00
2019-04-26T14:07:55.736Z,81.10
2019-04-26T14:10:26.165Z,80.20
2019-04-26T14:12:56.551Z,79.70
2019-04-26T14:15:27.041Z,79.20
2019-04-26T14:18:00.324Z,78.70
2019-04-26T14:20:29.590Z,78.70
2019-04-26T14:23:07.274Z,81.10
2019-04-26T14:26:01.268Z,79.00
2019-04-26T14:28:31.507Z,79.30
2019-04-26T14:31:01.810Z,80.50
2019-04-26T14:33:32.336Z,80.40
2019-04-26T14:36:02.902Z,78.10
2019-04-26T14:38:39.349Z,78.50
2019-04-26T14:41:05.556Z,78.80
2019-04-26T14:43:41.013Z,77.80
2019-04-26T14:46:10.539Z,77.60
2019-04-26T14:48:44.414Z,76.10
2019-04-26T14:51:16.650Z,72.70
2019-04-26T14:53:44.487Z,72.50
2019-04-26T14:56:15.964Z,73.70
2019-04-26T14:58:46.267Z,75.50
2019-04-26T15:01:28.464Z,75.90
2019-04-26T15:04:20.551Z,74.90
2019-04-26T15:06:51.874Z,75.60
2019-04-26T15:09:30.243Z,73.80
2019-04-26T15:12:00.928Z,74.40
2019-04-26T15:14:27.329Z,75.80
2019-04-26T15:16:57.741Z,74.70
2019-04-26T15:19:28.199Z,73.70
2019-04-26T15:22:04.068Z,75.00
2019-04-26T15:24:37.231Z,76.50
2019-04-26T15:27:05.161Z,76.70
2019-04-26T15:29:35.689Z,76.10
2019-04-26T15:32:06.282Z,77.60
2019-04-26T15:34:37.965Z,77.40
2019-04-26T15:37:09.004Z,77.70
2019-04-26T15:39:59.458Z,77.60
2019-04-26T15:42:39.515Z,78.10
2019-04-26T15:45:38.953Z,78.60
2019-04-26T15:48:20.233Z,77.00
2019-04-26T15:50:53.568Z,76.50
2019-04-26T15:53:23.895Z,76.10
2019-04-26T15:55:54.427Z,77.00
2019-04-26T15:58:24.639Z,77.10
2019-04-26T16:00:55.045Z,76.90
2019-04-26T16:03:25.423Z,75.60
2019-04-26T16:05:59.194Z,74.80
2019-04-26T16:08:34.029Z,75.00
2019-04-26T16:11:02.992Z,75.40
2019-04-26T16:13:33.584Z,75.70
2019-04-26T16:16:04.098Z,75.70
2019-04-26T16:18:34.537Z,75.90
2019-04-26T16:21:04.957Z,75.80
2019-04-26T16:23:41.281Z,75.20
2019-04-26T16:26:08.339Z,75.70
2019-04-26T16:28:46.316Z,75.70
2019-04-26T16:31:36.038Z,75.70
2019-04-26T16:34:10.797Z,75.40
2019-04-26T16:36:45.253Z,74.10
2019-04-26T16:39:14.553Z,74.40
2019-04-26T16:41:45.129Z,75.40
2019-04-26T16:44:19.216Z,75.10
2019-04-26T16:46:53.886Z,74.60
2019-04-26T16:49:21.383Z,74.80
2019-04-26T16:52:01.627Z,75.60
2019-04-26T16:54:26.830Z,75.30
2019-04-26T16:56:58.912Z,75.80
2019-04-26T16:59:29.334Z,75.60
2019-04-26T17:02:02.470Z,76.00
2019-04-26T17:04:35.268Z,76.00
2019-04-26T17:07:08.819Z,76.10
2019-04-26T17:09:57.836Z,75.30
2019-04-26T17:12:15.057Z,75.00
2019-04-26T17:14:47.479Z,73.60
2019-04-26T17:17:15.546Z,73.40
2019-04-26T17:19:45.833Z,74.50
2019-04-26T17:22:42.580Z,76.80
2019-04-26T17:25:17.026Z,77.90
2019-04-26T17:27:47.776Z,78.10
2019-04-26T17:30:22.316Z,78.50
2019-04-26T17:32:53.584Z,79.00
2019-04-26T17:35:25.639Z,79.30
2019-04-26T17:37:57.316Z,80.60
2019-04-26T17:40:30.167Z,80.90
2019-04-26T17:43:00.584Z,80.70
2019-04-26T17:45:32.349Z,81.10
2019-04-26T17:48:06.697Z,81.80
2019-04-26T17:50:38.896Z,81.80
2019-04-26T17:53:10.741Z,82.00
2019-04-26T17:55:41.341Z,82.10
2019-04-26T17:58:16.859Z,82.20
2019-04-26T18:00:46.529Z,82.30
2019-04-26T18:03:17.377Z,82.10
2019-04-26T18:05:56.648Z,82.50
2019-04-26T18:08:36.156Z,82.80
2019-04-26T18:10:54.007Z,83.10
2019-04-26T18:13:24.506Z,83.40
2019-04-26T18:15:57.424Z,83.80
2019-04-26T18:18:50.065Z,83.90
2019-04-26T18:21:59.659Z,83.60
2019-04-26T18:24:27.686Z,84.30
2019-04-26T18:27:00.451Z,84.40
2019-04-26T18:29:31.489Z,84.80
2019-04-26T18:32:03.705Z,85.20
2019-04-26T18:34:36.801Z,84.80
2019-04-26T18:37:07.476Z,85.10
2019-04-26T18:39:37.968Z,85.00
2019-04-26T18:42:08.657Z,84.70
2019-04-26T18:44:43.607Z,85.30
2019-04-26T18:47:20.381Z,85.40
2019-04-26T18:49:57.968Z,85.60
2019-04-26T18:52:26.270Z,85.60
2019-04-26T18:55:03.851Z,85.40
2019-04-26T18:57:33.775Z,85.50
2019-04-26T19:00:04.946Z,85.60
2019-04-26T19:02:36.991Z,85.90
2019-04-26T19:05:08.818Z,85.80
2019-04-26T19:07:41.617Z,85.90
2019-04-26T19:10:12.192Z,86.10
2019-04-26T19:12:43.982Z,86.30
2019-04-26T19:15:49.300Z,86.80
2019-04-26T19:18:53.570Z,86.50
2019-04-26T19:21:32.331Z,86.40
2019-04-26T19:24:07.420Z,86.60
2019-04-26T19:26:38.244Z,87.00
2019-04-26T19:29:17.651Z,87.00
2019-04-26T19:31:42.971Z,86.90
2019-04-26T19:34:13.500Z,87.30
2019-04-26T19:36:44.215Z,87.40
2019-04-26T19:39:14.809Z,87.70
2019-04-26T19:41:46.648Z,87.50
2019-04-26T19:44:19.041Z,87.90
2019-04-26T19:47:13.288Z,88.00
2019-04-26T19:50:09.341Z,87.90
2019-04-26T19:52:53.776Z,88.40
2019-04-26T19:55:36.114Z,88.50
2019-04-26T19:58:09.634Z,88.80
2019-04-26T20:00:43.371Z,89.20
2019-04-26T20:03:16.633Z,89.10
2019-04-26T20:05:45.476Z,89.30
2019-04-26T20:08:19.300Z,89.80
2019-04-26T20:10:49.689Z,89.80
2019-04-26T20:13:21.904Z,90.00
2019-04-26T20:15:53.154Z,90.10
2019-04-26T20:18:24.610Z,90.20
2019-04-26T20:20:55.103Z,90.30
2019-04-26T20:23:25.466Z,90.40
2019-04-26T20:25:55.816Z,90.40
2019-04-26T20:28:29.713Z,90.40
2019-04-26T20:31:10.331Z,90.40
2019-04-26T20:33:42.383Z,90.40
2019-04-26T20:36:12.993Z,90.40
2019-04-26T20:38:47.302Z,90.50
2019-04-26T20:41:15.765Z,90.50
2019-04-26T20:44:02.073Z,90.60
2019-04-26T20:46:18.519Z,90.50
2019-04-26T20:48:49.139Z,90.40
2019-04-26T20:51:19.647Z,90.40
2019-04-26T20:53:50.185Z,90.50
2019-04-26T20:56:22.377Z,90.50
2019-04-26T20:58:53.173Z,90.50
2019-04-26T21:01:23.619Z,90.40
2019-04-26T21:03:54.115Z,90.40
2019-04-26T21:06:29.371Z,90.40
2019-04-26T21:09:03.340Z,90.30
2019-04-26T21:11:37.139Z,90.40
2019-04-26T21:14:07.663Z,90.40
2019-04-26T21:16:37.405Z,90.40
2019-04-26T21:19:08.041Z,90.50
2019-04-26T21:21:41.948Z,90.50
2019-04-26T21:24:14.905Z,90.70
2019-04-26T21:26:54.614Z,91.20
2019-04-26T21:29:59.041Z,91.40
2019-04-26T21:32:59.249Z,92.00
2019-04-26T21:35:33.904Z,92.30
2019-04-26T21:38:13.385Z,92.60
2019-04-26T21:41:04.346Z,92.80
2019-04-26T21:43:34.689Z,93.20
2019-04-26T21:46:08.416Z,93.60
2019-04-26T21:48:37.363Z,93.90
2019-04-26T21:51:08.419Z,93.80
2019-04-26T21:53:43.852Z,93.30
2019-04-26T21:56:11.682Z,92.80
2019-04-26T21:58:46.140Z,92.70
2019-04-26T22:01:20.295Z,92.80
2019-04-26T22:03:56.670Z,92.90
2019-04-26T22:06:28.766Z,93.00
2019-04-26T22:09:13.643Z,92.70
2019-04-26T22:11:44.623Z,92.80
2019-04-26T22:14:23.583Z,92.80
2019-04-26T22:17:08.229Z,92.70
2019-04-26T22:19:47.077Z,92.70
2019-04-26T22:22:37.481Z,92.60
2019-04-26T22:25:08.252Z,92.90
2019-04-26T22:27:38.575Z,92.40
2019-04-26T22:30:13.819Z,92.50
2019-04-26T22:32:44.223Z,92.80
2019-04-26T22:35:20.218Z,92.30
2019-04-26T22:37:48.087Z,92.10
2019-04-26T22:40:19.960Z,92.00
2019-04-26T22:42:56.175Z,91.80
2019-04-26T22:45:44.158Z,91.70
2019-04-26T22:48:23.121Z,91.60
2019-04-26T22:50:53.696Z,91.60
2019-04-26T22:53:25.895Z,91.60
2019-04-26T22:55:57.678Z,91.40
2019-04-26T22:58:28.862Z,91.30
2019-04-26T23:00:58.515Z,91.20
2019-04-26T23:03:30.487Z,91.10
2019-04-26T23:06:00.861Z,91.10
2019-04-26T23:08:35.245Z,91.00
2019-04-26T23:11:09.056Z,91.00
2019-04-26T23:13:56.432Z,90.70
2019-04-26T23:16:35.659Z,90.60
2019-04-26T23:19:24.967Z,90.70
2019-04-26T23:21:56.660Z,90.60
2019-04-26T23:24:26.986Z,90.50
2019-04-26T23:26:57.415Z,90.40
2019-04-26T23:29:27.693Z,90.20
2019-04-26T23:31:58.094Z,90.30
2019-04-26T23:34:28.323Z,90.10
2019-04-26T23:37:03.184Z,89.90
2019-04-26T23:39:36.141Z,89.80
2019-04-26T23:42:06.824Z,89.90
2019-04-26T23:44:40.203Z,89.40
2019-04-26T23:47:20.605Z,89.80
2019-04-26T23:49:41.175Z,90.00
2019-04-26T23:52:14.453Z,89.60
2019-04-26T23:54:43.686Z,89.50
2019-04-26T23:57:13.929Z,89.60
2019-04-26T23:59:45.374Z,89.80
